sensor_id;sensor_type;location;lat;lon;timestamp;pressure;altitude;pressure_sealevel;temperature
64916;BMP280;51427;-27.442;153.014;2023-05-21T00:01:01;101873.56;;;20.33
64916;BMP280;51427;-27.442;153.014;2023-05-21T00:03:30;101870.34;;;19.64
64916;BMP280;51427;-27.442;153.014;2023-05-21T00:05:57;101871.31;;;20.28
64916;BMP280;51427;-27.442;153.014;2023-05-21T00:08:25;101863.81;;;20.39
64916;BMP280;51427;-27.442;153.014;2023-05-21T00:10:53;101859.78;;;20.86
64916;BMP280;51427;-27.442;153.014;2023-05-21T00:13:19;101856.22;;;21.01
64916;BMP280;51427;-27.442;153.014;2023-05-21T00:15:46;101848.75;;;20.36
64916;BMP280;51427;-27.442;153.014;2023-05-21T00:18:12;101850.19;;;20.52
64916;BMP280;51427;-27.442;153.014;2023-05-21T00:20:38;101849.00;;;20.95
64916;BMP280;51427;-27.442;153.014;2023-05-21T00:23:06;101851.91;;;20.40
64916;BMP280;51427;-27.442;153.014;2023-05-21T00:25:33;101833.34;;;20.76
64916;BMP280;51427;-27.442;153.014;2023-05-21T00:27:59;101821.13;;;20.69
64916;BMP280;51427;-27.442;153.014;2023-05-21T00:30:25;101820.06;;;20.22
64916;BMP280;51427;-27.442;153.014;2023-05-21T00:32:52;101818.88;;;20.89
64916;BMP280;51427;-27.442;153.014;2023-05-21T00:35:19;101811.88;;;20.80
64916;BMP280;51427;-27.442;153.014;2023-05-21T00:37:45;101804.53;;;20.63
64916;BMP280;51427;-27.442;153.014;2023-05-21T00:40:12;101798.88;;;21.08
64916;BMP280;51427;-27.442;153.014;2023-05-21T00:42:39;101802.84;;;21.12
64916;BMP280;51427;-27.442;153.014;2023-05-21T00:45:06;101795.16;;;20.64
64916;BMP280;51427;-27.442;153.014;2023-05-21T00:47:33;101798.47;;;20.15
64916;BMP280;51427;-27.442;153.014;2023-05-21T00:50:00;101792.00;;;20.97
64916;BMP280;51427;-27.442;153.014;2023-05-21T00:52:27;101776.44;;;21.25
64916;BMP280;51427;-27.442;153.014;2023-05-21T00:54:54;101776.63;;;20.99
64916;BMP280;51427;-27.442;153.014;2023-05-21T00:57:21;101753.19;;;21.30
64916;BMP280;51427;-27.442;153.014;2023-05-21T00:59:49;101754.41;;;21.36
64916;BMP280;51427;-27.442;153.014;2023-05-21T01:02:16;101751.75;;;21.15
64916;BMP280;51427;-27.442;153.014;2023-05-21T01:04:46;101745.06;;;21.25
64916;BMP280;51427;-27.442;153.014;2023-05-21T01:07:12;101733.03;;;21.73
64916;BMP280;51427;-27.442;153.014;2023-05-21T01:09:42;101737.47;;;21.35
64916;BMP280;51427;-27.442;153.014;2023-05-21T01:12:08;101721.22;;;22.17
64916;BMP280;51427;-27.442;153.014;2023-05-21T01:14:36;101713.72;;;22.37
64916;BMP280;51427;-27.442;153.014;2023-05-21T01:17:03;101701.66;;;22.28
64916;BMP280;51427;-27.442;153.014;2023-05-21T01:19:30;101701.59;;;21.96
64916;BMP280;51427;-27.442;153.014;2023-05-21T01:22:03;101704.47;;;21.91
64916;BMP280;51427;-27.442;153.014;2023-05-21T01:24:30;101681.66;;;22.99
64916;BMP280;51427;-27.442;153.014;2023-05-21T01:26:57;101684.50;;;22.52
64916;BMP280;51427;-27.442;153.014;2023-05-21T01:29:23;101667.31;;;22.65
64916;BMP280;51427;-27.442;153.014;2023-05-21T01:34:29;101668.72;;;22.47
64916;BMP280;51427;-27.442;153.014;2023-05-21T01:37:06;101657.56;;;22.70
64916;BMP280;51427;-27.442;153.014;2023-05-21T01:39:35;101661.03;;;23.42
64916;BMP280;51427;-27.442;153.014;2023-05-21T01:42:05;101649.22;;;22.79
64916;BMP280;51427;-27.442;153.014;2023-05-21T01:44:32;101656.31;;;22.54
64916;BMP280;51427;-27.442;153.014;2023-05-21T01:46:59;101660.81;;;22.07
64916;BMP280;51427;-27.442;153.014;2023-05-21T01:49:26;101660.94;;;22.16
64916;BMP280;51427;-27.442;153.014;2023-05-21T01:51:53;101658.50;;;22.15
64916;BMP280;51427;-27.442;153.014;2023-05-21T01:54:20;101662.63;;;21.61
64916;BMP280;51427;-27.442;153.014;2023-05-21T01:56:48;101650.28;;;22.66
64916;BMP280;51427;-27.442;153.014;2023-05-21T01:59:15;101649.91;;;22.70
64916;BMP280;51427;-27.442;153.014;2023-05-21T02:01:42;101647.28;;;22.50
64916;BMP280;51427;-27.442;153.014;2023-05-21T02:04:09;101625.56;;;22.55
64916;BMP280;51427;-27.442;153.014;2023-05-21T02:06:35;101635.06;;;22.75
64916;BMP280;51427;-27.442;153.014;2023-05-21T02:09:04;101631.34;;;22.79
64916;BMP280;51427;-27.442;153.014;2023-05-21T02:11:30;101637.91;;;22.28
64916;BMP280;51427;-27.442;153.014;2023-05-21T02:13:56;101617.16;;;22.44
64916;BMP280;51427;-27.442;153.014;2023-05-21T02:16:23;101617.03;;;22.87
64916;BMP280;51427;-27.442;153.014;2023-05-21T02:18:50;101614.97;;;22.81
64916;BMP280;51427;-27.442;153.014;2023-05-21T02:21:18;101609.72;;;22.83
64916;BMP280;51427;-27.442;153.014;2023-05-21T02:23:45;101602.41;;;23.20
64916;BMP280;51427;-27.442;153.014;2023-05-21T02:26:11;101606.75;;;22.78
64916;BMP280;51427;-27.442;153.014;2023-05-21T02:28:38;101605.66;;;23.43
64916;BMP280;51427;-27.442;153.014;2023-05-21T02:31:05;101593.59;;;23.65
64916;BMP280;51427;-27.442;153.014;2023-05-21T02:33:31;101604.09;;;23.11
64916;BMP280;51427;-27.442;153.014;2023-05-21T02:35:57;101607.63;;;23.60
64916;BMP280;51427;-27.442;153.014;2023-05-21T02:38:24;101612.16;;;22.95
64916;BMP280;51427;-27.442;153.014;2023-05-21T02:40:50;101607.41;;;22.80
64916;BMP280;51427;-27.442;153.014;2023-05-21T02:43:17;101602.06;;;22.94
64916;BMP280;51427;-27.442;153.014;2023-05-21T02:45:44;101610.97;;;23.51
64916;BMP280;51427;-27.442;153.014;2023-05-21T02:48:11;101592.56;;;23.77
64916;BMP280;51427;-27.442;153.014;2023-05-21T02:50:37;101592.13;;;23.72
64916;BMP280;51427;-27.442;153.014;2023-05-21T02:53:04;101593.25;;;23.38
64916;BMP280;51427;-27.442;153.014;2023-05-21T02:55:30;101585.53;;;23.09
64916;BMP280;51427;-27.442;153.014;2023-05-21T02:57:57;101580.13;;;23.93
64916;BMP280;51427;-27.442;153.014;2023-05-21T03:00:23;101577.09;;;22.55
64916;BMP280;51427;-27.442;153.014;2023-05-21T03:02:50;101568.97;;;23.23
64916;BMP280;51427;-27.442;153.014;2023-05-21T03:05:16;101568.94;;;23.44
64916;BMP280;51427;-27.442;153.014;2023-05-21T03:07:43;101563.53;;;23.37
64916;BMP280;51427;-27.442;153.014;2023-05-21T03:10:09;101561.75;;;23.58
64916;BMP280;51427;-27.442;153.014;2023-05-21T03:12:36;101556.84;;;22.74
64916;BMP280;51427;-27.442;153.014;2023-05-21T03:15:02;101549.34;;;23.04
64916;BMP280;51427;-27.442;153.014;2023-05-21T03:17:29;101541.78;;;23.93
64916;BMP280;51427;-27.442;153.014;2023-05-21T03:19:56;101532.63;;;24.00
64916;BMP280;51427;-27.442;153.014;2023-05-21T03:22:23;101530.84;;;23.11
64916;BMP280;51427;-27.442;153.014;2023-05-21T03:24:49;101516.22;;;23.93
64916;BMP280;51427;-27.442;153.014;2023-05-21T03:27:16;101520.16;;;24.25
64916;BMP280;51427;-27.442;153.014;2023-05-21T03:29:42;101522.16;;;24.03
64916;BMP280;51427;-27.442;153.014;2023-05-21T03:32:09;101538.06;;;24.25
64916;BMP280;51427;-27.442;153.014;2023-05-21T03:34:35;101524.75;;;23.73
64916;BMP280;51427;-27.442;153.014;2023-05-21T03:37:02;101533.59;;;23.69
64916;BMP280;51427;-27.442;153.014;2023-05-21T03:39:28;101541.47;;;23.36
64916;BMP280;51427;-27.442;153.014;2023-05-21T03:41:58;101526.19;;;23.96
64916;BMP280;51427;-27.442;153.014;2023-05-21T03:44:24;101531.97;;;23.98
64916;BMP280;51427;-27.442;153.014;2023-05-21T03:46:51;101523.41;;;23.28
64916;BMP280;51427;-27.442;153.014;2023-05-21T03:49:18;101517.84;;;24.03
64916;BMP280;51427;-27.442;153.014;2023-05-21T03:51:45;101519.09;;;24.27
64916;BMP280;51427;-27.442;153.014;2023-05-21T03:54:11;101516.59;;;23.59
64916;BMP280;51427;-27.442;153.014;2023-05-21T03:56:38;101521.78;;;22.87
64916;BMP280;51427;-27.442;153.014;2023-05-21T03:59:04;101515.25;;;23.34
64916;BMP280;51427;-27.442;153.014;2023-05-21T04:01:31;101515.50;;;23.61
64916;BMP280;51427;-27.442;153.014;2023-05-21T04:03:57;101522.56;;;23.19
64916;BMP280;51427;-27.442;153.014;2023-05-21T04:06:24;101522.25;;;23.12
64916;BMP280;51427;-27.442;153.014;2023-05-21T04:08:50;101524.81;;;23.32
64916;BMP280;51427;-27.442;153.014;2023-05-21T04:11:17;101520.19;;;23.56
64916;BMP280;51427;-27.442;153.014;2023-05-21T04:13:43;101514.00;;;23.79
64916;BMP280;51427;-27.442;153.014;2023-05-21T04:16:10;101514.59;;;23.32
64916;BMP280;51427;-27.442;153.014;2023-05-21T04:18:39;101497.81;;;23.39
64916;BMP280;51427;-27.442;153.014;2023-05-21T04:21:06;101498.69;;;23.79
64916;BMP280;51427;-27.442;153.014;2023-05-21T04:23:33;101490.25;;;23.08
64916;BMP280;51427;-27.442;153.014;2023-05-21T04:26:02;101492.47;;;23.52
64916;BMP280;51427;-27.442;153.014;2023-05-21T04:28:29;101484.19;;;23.29
64916;BMP280;51427;-27.442;153.014;2023-05-21T04:30:55;101481.13;;;23.65
64916;BMP280;51427;-27.442;153.014;2023-05-21T04:33:22;101479.16;;;23.48
64916;BMP280;51427;-27.442;153.014;2023-05-21T04:35:49;101475.00;;;23.77
64916;BMP280;51427;-27.442;153.014;2023-05-21T04:38:16;101484.00;;;23.51
64916;BMP280;51427;-27.442;153.014;2023-05-21T04:40:47;101495.53;;;23.46
64916;BMP280;51427;-27.442;153.014;2023-05-21T04:43:15;101496.41;;;23.85
64916;BMP280;51427;-27.442;153.014;2023-05-21T04:45:42;101491.22;;;23.67
64916;BMP280;51427;-27.442;153.014;2023-05-21T04:48:08;101489.59;;;23.36
64916;BMP280;51427;-27.442;153.014;2023-05-21T04:50:35;101475.59;;;23.30
64916;BMP280;51427;-27.442;153.014;2023-05-21T04:53:01;101472.59;;;23.25
64916;BMP280;51427;-27.442;153.014;2023-05-21T04:55:28;101463.31;;;22.95
64916;BMP280;51427;-27.442;153.014;2023-05-21T04:57:54;101456.78;;;22.71
64916;BMP280;51427;-27.442;153.014;2023-05-21T05:00:21;101475.78;;;22.46
64916;BMP280;51427;-27.442;153.014;2023-05-21T05:02:50;101484.59;;;22.53
64916;BMP280;51427;-27.442;153.014;2023-05-21T05:05:17;101497.97;;;22.66
64916;BMP280;51427;-27.442;153.014;2023-05-21T05:07:43;101490.94;;;22.27
64916;BMP280;51427;-27.442;153.014;2023-05-21T05:10:10;101497.91;;;22.26
64916;BMP280;51427;-27.442;153.014;2023-05-21T05:12:36;101505.44;;;22.27
64916;BMP280;51427;-27.442;153.014;2023-05-21T05:15:03;101512.22;;;22.48
64916;BMP280;51427;-27.442;153.014;2023-05-21T05:17:30;101515.53;;;22.07
64916;BMP280;51427;-27.442;153.014;2023-05-21T05:19:57;101516.69;;;21.81
64916;BMP280;51427;-27.442;153.014;2023-05-21T05:22:23;101514.16;;;21.70
64916;BMP280;51427;-27.442;153.014;2023-05-21T05:24:50;101529.94;;;21.86
64916;BMP280;51427;-27.442;153.014;2023-05-21T05:29:20;101526.31;;;21.78
64916;BMP280;51427;-27.442;153.014;2023-05-21T05:31:47;101505.03;;;21.68
64916;BMP280;51427;-27.442;153.014;2023-05-21T05:34:15;101512.31;;;21.72
64916;BMP280;51427;-27.442;153.014;2023-05-21T05:36:42;101517.16;;;21.42
64916;BMP280;51427;-27.442;153.014;2023-05-21T05:39:09;101506.63;;;21.47
64916;BMP280;51427;-27.442;153.014;2023-05-21T05:41:36;101502.22;;;21.38
64916;BMP280;51427;-27.442;153.014;2023-05-21T05:44:03;101500.03;;;21.55
64916;BMP280;51427;-27.442;153.014;2023-05-21T05:46:31;101513.41;;;21.35
64916;BMP280;51427;-27.442;153.014;2023-05-21T05:48:58;101523.84;;;21.43
64916;BMP280;51427;-27.442;153.014;2023-05-21T05:51:25;101529.09;;;21.08
64916;BMP280;51427;-27.442;153.014;2023-05-21T05:53:52;101537.03;;;21.37
64916;BMP280;51427;-27.442;153.014;2023-05-21T05:56:19;101538.97;;;21.23
64916;BMP280;51427;-27.442;153.014;2023-05-21T05:58:47;101537.75;;;21.39
64916;BMP280;51427;-27.442;153.014;2023-05-21T06:01:14;101540.44;;;21.04
64916;BMP280;51427;-27.442;153.014;2023-05-21T06:03:41;101541.13;;;21.06
64916;BMP280;51427;-27.442;153.014;2023-05-21T06:06:08;101542.50;;;20.99
64916;BMP280;51427;-27.442;153.014;2023-05-21T06:08:36;101530.28;;;20.81
64916;BMP280;51427;-27.442;153.014;2023-05-21T06:11:05;101529.97;;;20.85
64916;BMP280;51427;-27.442;153.014;2023-05-21T06:13:32;101533.91;;;20.89
64916;BMP280;51427;-27.442;153.014;2023-05-21T06:16:00;101527.84;;;20.79
64916;BMP280;51427;-27.442;153.014;2023-05-21T06:18:27;101539.38;;;20.72
64916;BMP280;51427;-27.442;153.014;2023-05-21T06:20:54;101526.00;;;20.58
64916;BMP280;51427;-27.442;153.014;2023-05-21T06:23:21;101536.09;;;20.47
64916;BMP280;51427;-27.442;153.014;2023-05-21T06:25:49;101541.72;;;20.40
64916;BMP280;51427;-27.442;153.014;2023-05-21T06:28:16;101533.13;;;20.30
64916;BMP280;51427;-27.442;153.014;2023-05-21T06:30:43;101538.63;;;20.24
64916;BMP280;51427;-27.442;153.014;2023-05-21T06:33:10;101556.97;;;20.04
64916;BMP280;51427;-27.442;153.014;2023-05-21T06:35:37;101549.22;;;20.18
64916;BMP280;51427;-27.442;153.014;2023-05-21T06:38:05;101556.97;;;20.04
64916;BMP280;51427;-27.442;153.014;2023-05-21T06:40:33;101576.31;;;19.94
64916;BMP280;51427;-27.442;153.014;2023-05-21T06:43:00;101581.59;;;19.91
64916;BMP280;51427;-27.442;153.014;2023-05-21T06:45:30;101580.16;;;19.75
64916;BMP280;51427;-27.442;153.014;2023-05-21T06:47:57;101580.56;;;19.81
64916;BMP280;51427;-27.442;153.014;2023-05-21T06:50:24;101581.56;;;19.66
64916;BMP280;51427;-27.442;153.014;2023-05-21T06:52:51;101603.63;;;19.78
64916;BMP280;51427;-27.442;153.014;2023-05-21T06:55:18;101607.16;;;19.63
64916;BMP280;51427;-27.442;153.014;2023-05-21T06:57:46;101614.84;;;19.50
64916;BMP280;51427;-27.442;153.014;2023-05-21T07:00:13;101626.84;;;19.60
64916;BMP280;51427;-27.442;153.014;2023-05-21T07:02:41;101624.28;;;19.35
64916;BMP280;51427;-27.442;153.014;2023-05-21T07:05:08;101644.69;;;19.34
64916;BMP280;51427;-27.442;153.014;2023-05-21T07:07:36;101651.66;;;19.56
64916;BMP280;51427;-27.442;153.014;2023-05-21T07:10:03;101664.34;;;19.18
64916;BMP280;51427;-27.442;153.014;2023-05-21T07:12:30;101663.63;;;19.16
64916;BMP280;51427;-27.442;153.014;2023-05-21T07:14:58;101664.91;;;19.09
64916;BMP280;51427;-27.442;153.014;2023-05-21T07:17:25;101671.94;;;19.18
64916;BMP280;51427;-27.442;153.014;2023-05-21T07:19:52;101660.16;;;19.17
64916;BMP280;51427;-27.442;153.014;2023-05-21T07:22:19;101655.97;;;19.04
64916;BMP280;51427;-27.442;153.014;2023-05-21T07:24:46;101637.91;;;18.68
64916;BMP280;51427;-27.442;153.014;2023-05-21T07:27:13;101625.88;;;18.58
64916;BMP280;51427;-27.442;153.014;2023-05-21T07:29:41;101631.63;;;18.73
64916;BMP280;51427;-27.442;153.014;2023-05-21T07:32:08;101630.84;;;18.73
64916;BMP280;51427;-27.442;153.014;2023-05-21T07:34:35;101641.56;;;18.90
64916;BMP280;51427;-27.442;153.014;2023-05-21T07:37:02;101646.84;;;18.73
64916;BMP280;51427;-27.442;153.014;2023-05-21T07:39:30;101661.53;;;18.68
64916;BMP280;51427;-27.442;153.014;2023-05-21T07:41:57;101664.53;;;18.61
64916;BMP280;51427;-27.442;153.014;2023-05-21T07:44:25;101685.47;;;18.51
64916;BMP280;51427;-27.442;153.014;2023-05-21T07:46:52;101690.28;;;18.41
64916;BMP280;51427;-27.442;153.014;2023-05-21T07:49:19;101697.88;;;18.14
64916;BMP280;51427;-27.442;153.014;2023-05-21T07:51:46;101703.56;;;18.31
64916;BMP280;51427;-27.442;153.014;2023-05-21T07:54:14;101692.53;;;18.18
64916;BMP280;51427;-27.442;153.014;2023-05-21T07:56:41;101696.28;;;18.11
64916;BMP280;51427;-27.442;153.014;2023-05-21T07:59:09;101697.44;;;18.35
64916;BMP280;51427;-27.442;153.014;2023-05-21T08:01:36;101707.91;;;18.15
64916;BMP280;51427;-27.442;153.014;2023-05-21T08:04:03;101722.78;;;18.06
64916;BMP280;51427;-27.442;153.014;2023-05-21T08:06:33;101725.25;;;18.07
64916;BMP280;51427;-27.442;153.014;2023-05-21T08:09:03;101735.59;;;18.18
64916;BMP280;51427;-27.442;153.014;2023-05-21T08:11:31;101735.88;;;18.27
64916;BMP280;51427;-27.442;153.014;2023-05-21T08:13:59;101728.28;;;17.98
64916;BMP280;51427;-27.442;153.014;2023-05-21T08:16:26;101735.19;;;18.10
64916;BMP280;51427;-27.442;153.014;2023-05-21T08:18:53;101741.56;;;18.17
64916;BMP280;51427;-27.442;153.014;2023-05-21T08:21:20;101751.63;;;18.03
64916;BMP280;51427;-27.442;153.014;2023-05-21T08:23:48;101755.97;;;18.16
64916;BMP280;51427;-27.442;153.014;2023-05-21T08:26:15;101757.69;;;18.16
64916;BMP280;51427;-27.442;153.014;2023-05-21T08:28:42;101764.69;;;18.11
64916;BMP280;51427;-27.442;153.014;2023-05-21T08:31:10;101750.88;;;18.16
64916;BMP280;51427;-27.442;153.014;2023-05-21T08:33:37;101761.59;;;18.06
64916;BMP280;51427;-27.442;153.014;2023-05-21T08:36:06;101761.28;;;18.12
64916;BMP280;51427;-27.442;153.014;2023-05-21T08:38:34;101779.19;;;17.94
64916;BMP280;51427;-27.442;153.014;2023-05-21T08:41:02;101785.09;;;17.94
64916;BMP280;51427;-27.442;153.014;2023-05-21T08:43:30;101791.09;;;18.07
64916;BMP280;51427;-27.442;153.014;2023-05-21T08:46:00;101784.69;;;17.86
64916;BMP280;51427;-27.442;153.014;2023-05-21T08:48:30;101781.09;;;17.90
64916;BMP280;51427;-27.442;153.014;2023-05-21T08:50:58;101776.88;;;17.75
64916;BMP280;51427;-27.442;153.014;2023-05-21T08:53:26;101782.53;;;17.65
64916;BMP280;51427;-27.442;153.014;2023-05-21T08:55:54;101783.19;;;17.68
64916;BMP280;51427;-27.442;153.014;2023-05-21T08:58:22;101775.59;;;17.68
64916;BMP280;51427;-27.442;153.014;2023-05-21T09:00:49;101776.56;;;17.66
64916;BMP280;51427;-27.442;153.014;2023-05-21T09:03:17;101783.81;;;17.72
64916;BMP280;51427;-27.442;153.014;2023-05-21T09:05:44;101787.59;;;17.65
64916;BMP280;51427;-27.442;153.014;2023-05-21T09:08:18;101778.44;;;17.63
64916;BMP280;51427;-27.442;153.014;2023-05-21T09:10:51;101782.53;;;17.65
64916;BMP280;51427;-27.442;153.014;2023-05-21T09:13:19;101793.00;;;17.44
64916;BMP280;51427;-27.442;153.014;2023-05-21T09:15:47;101803.50;;;17.21
64916;BMP280;51427;-27.442;153.014;2023-05-21T09:18:14;101816.88;;;17.08
64916;BMP280;51427;-27.442;153.014;2023-05-21T09:20:42;101817.25;;;17.00
64916;BMP280;51427;-27.442;153.014;2023-05-21T09:23:10;101824.09;;;16.98
64916;BMP280;51427;-27.442;153.014;2023-05-21T09:25:45;101830.34;;;16.91
64916;BMP280;51427;-27.442;153.014;2023-05-21T09:28:14;101827.19;;;16.88
64916;BMP280;51427;-27.442;153.014;2023-05-21T09:30:45;101830.94;;;16.96
64916;BMP280;51427;-27.442;153.014;2023-05-21T09:33:28;101836.19;;;16.93
64916;BMP280;51427;-27.442;153.014;2023-05-21T09:35:56;101843.31;;;16.85
64916;BMP280;51427;-27.442;153.014;2023-05-21T09:38:32;101842.84;;;16.94
64916;BMP280;51427;-27.442;153.014;2023-05-21T09:41:04;101832.72;;;16.94
64916;BMP280;51427;-27.442;153.014;2023-05-21T09:43:32;101837.13;;;16.91
64916;BMP280;51427;-27.442;153.014;2023-05-21T09:46:00;101830.78;;;16.99
64916;BMP280;51427;-27.442;153.014;2023-05-21T09:51:16;101830.91;;;16.81
64916;BMP280;51427;-27.442;153.014;2023-05-21T09:54:03;101838.44;;;16.82
64916;BMP280;51427;-27.442;153.014;2023-05-21T09:56:31;101843.75;;;16.93
64916;BMP280;51427;-27.442;153.014;2023-05-21T09:59:01;101831.53;;;17.01
64916;BMP280;51427;-27.442;153.014;2023-05-21T10:01:33;101847.81;;;16.96
64916;BMP280;51427;-27.442;153.014;2023-05-21T10:04:05;101850.00;;;16.86
64916;BMP280;51427;-27.442;153.014;2023-05-21T10:06:37;101845.66;;;16.73
64916;BMP280;51427;-27.442;153.014;2023-05-21T10:09:09;101846.47;;;16.74
64916;BMP280;51427;-27.442;153.014;2023-05-21T10:11:39;101851.75;;;16.69
64916;BMP280;51427;-27.442;153.014;2023-05-21T10:14:24;101846.53;;;16.72
64916;BMP280;51427;-27.442;153.014;2023-05-21T10:16:53;101847.38;;;16.56
64916;BMP280;51427;-27.442;153.014;2023-05-21T10:19:22;101847.22;;;16.59
64916;BMP280;51427;-27.442;153.014;2023-05-21T10:21:51;101840.22;;;16.64
64916;BMP280;51427;-27.442;153.014;2023-05-21T10:24:19;101838.69;;;16.61
64916;BMP280;51427;-27.442;153.014;2023-05-21T10:26:48;101836.97;;;16.62
64916;BMP280;51427;-27.442;153.014;2023-05-21T10:29:17;101849.09;;;16.55
64916;BMP280;51427;-27.442;153.014;2023-05-21T10:31:45;101848.13;;;16.58
64916;BMP280;51427;-27.442;153.014;2023-05-21T10:34:16;101854.22;;;16.54
64916;BMP280;51427;-27.442;153.014;2023-05-21T10:36:44;101858.53;;;16.52
64916;BMP280;51427;-27.442;153.014;2023-05-21T10:39:12;101855.41;;;16.47
64916;BMP280;51427;-27.442;153.014;2023-05-21T10:42:04;101857.66;;;16.36
64916;BMP280;51427;-27.442;153.014;2023-05-21T10:45:30;101863.28;;;16.24
64916;BMP280;51427;-27.442;153.014;2023-05-21T11:01:07;101882.22;;;16.32
64916;BMP280;51427;-27.442;153.014;2023-05-21T11:03:36;101883.81;;;16.17
64916;BMP280;51427;-27.442;153.014;2023-05-21T11:06:04;101896.56;;;16.14
64916;BMP280;51427;-27.442;153.014;2023-05-21T11:08:32;101900.88;;;16.12
64916;BMP280;51427;-27.442;153.014;2023-05-21T11:11:04;101908.34;;;15.96
64916;BMP280;51427;-27.442;153.014;2023-05-21T11:13:49;101898.16;;;15.98
64916;BMP280;51427;-27.442;153.014;2023-05-21T11:16:17;101905.41;;;16.05
64916;BMP280;51427;-27.442;153.014;2023-05-21T11:21:17;101909.72;;;15.85
64916;BMP280;51427;-27.442;153.014;2023-05-21T11:26:19;101918.25;;;15.83
64916;BMP280;51427;-27.442;153.014;2023-05-21T11:29:05;101919.16;;;15.63
64916;BMP280;51427;-27.442;153.014;2023-05-21T11:31:34;101915.19;;;15.76
64916;BMP280;51427;-27.442;153.014;2023-05-21T11:36:40;101927.66;;;15.61
64916;BMP280;51427;-27.442;153.014;2023-05-21T11:39:17;101920.50;;;15.52
64916;BMP280;51427;-27.442;153.014;2023-05-21T11:41:57;101925.88;;;15.44
64916;BMP280;51427;-27.442;153.014;2023-05-21T11:44:45;101930.94;;;15.44
64916;BMP280;51427;-27.442;153.014;2023-05-21T11:47:15;101936.03;;;15.43
64916;BMP280;51427;-27.442;153.014;2023-05-21T11:49:43;101940.59;;;15.35
64916;BMP280;51427;-27.442;153.014;2023-05-21T11:52:12;101942.88;;;15.21
64916;BMP280;51427;-27.442;153.014;2023-05-21T11:54:49;101942.69;;;15.26
64916;BMP280;51427;-27.442;153.014;2023-05-21T11:57:19;101940.78;;;15.31
64916;BMP280;51427;-27.442;153.014;2023-05-21T11:59:48;101950.56;;;15.18
64916;BMP280;51427;-27.442;153.014;2023-05-21T12:02:20;101962.16;;;14.61
64916;BMP280;51427;-27.442;153.014;2023-05-21T12:04:49;101967.81;;;14.47
64916;BMP280;51427;-27.442;153.014;2023-05-21T12:07:18;101962.84;;;14.65
64916;BMP280;51427;-27.442;153.014;2023-05-21T12:09:50;101965.84;;;14.74
64916;BMP280;51427;-27.442;153.014;2023-05-21T12:12:19;101969.94;;;14.55
64916;BMP280;51427;-27.442;153.014;2023-05-21T12:14:49;101968.28;;;14.56
64916;BMP280;51427;-27.442;153.014;2023-05-21T12:17:21;101982.28;;;14.42
64916;BMP280;51427;-27.442;153.014;2023-05-21T12:19:53;101981.16;;;14.27
64916;BMP280;51427;-27.442;153.014;2023-05-21T12:22:23;101993.06;;;14.00
64916;BMP280;51427;-27.442;153.014;2023-05-21T12:24:51;101997.22;;;13.78
64916;BMP280;51427;-27.442;153.014;2023-05-21T12:27:21;101997.47;;;13.95
64916;BMP280;51427;-27.442;153.014;2023-05-21T12:29:50;102003.38;;;13.94
64916;BMP280;51427;-27.442;153.014;2023-05-21T12:32:19;102005.38;;;14.08
64916;BMP280;51427;-27.442;153.014;2023-05-21T12:34:51;102001.00;;;14.35
64916;BMP280;51427;-27.442;153.014;2023-05-21T12:37:23;101999.56;;;14.29
64916;BMP280;51427;-27.442;153.014;2023-05-21T12:39:57;102007.81;;;14.10
64916;BMP280;51427;-27.442;153.014;2023-05-21T12:42:28;102012.44;;;13.52
64916;BMP280;51427;-27.442;153.014;2023-05-21T12:44:57;102011.28;;;14.07
64916;BMP280;51427;-27.442;153.014;2023-05-21T12:47:26;102011.63;;;13.97
64916;BMP280;51427;-27.442;153.014;2023-05-21T12:49:58;102017.78;;;14.13
64916;BMP280;51427;-27.442;153.014;2023-05-21T12:52:26;102029.41;;;13.93
64916;BMP280;51427;-27.442;153.014;2023-05-21T12:54:56;102023.88;;;14.07
64916;BMP280;51427;-27.442;153.014;2023-05-21T12:57:24;102032.50;;;13.76
64916;BMP280;51427;-27.442;153.014;2023-05-21T13:00:01;102033.47;;;13.74
64916;BMP280;51427;-27.442;153.014;2023-05-21T13:02:30;102041.56;;;13.82
64916;BMP280;51427;-27.442;153.014;2023-05-21T13:05:03;102035.66;;;13.34
64916;BMP280;51427;-27.442;153.014;2023-05-21T13:07:36;102050.91;;;13.54
64916;BMP280;51427;-27.442;153.014;2023-05-21T13:10:05;102054.88;;;13.61
64916;BMP280;51427;-27.442;153.014;2023-05-21T13:12:33;102058.88;;;13.42
64916;BMP280;51427;-27.442;153.014;2023-05-21T13:15:02;102064.03;;;13.13
64916;BMP280;51427;-27.442;153.014;2023-05-21T13:17:31;102079.16;;;12.86
64916;BMP280;51427;-27.442;153.014;2023-05-21T13:22:51;102080.47;;;12.69
64916;BMP280;51427;-27.442;153.014;2023-05-21T13:25:24;102092.78;;;12.76
64916;BMP280;51427;-27.442;153.014;2023-05-21T13:27:55;102077.44;;;12.87
64916;BMP280;51427;-27.442;153.014;2023-05-21T13:30:23;102080.81;;;13.13
64916;BMP280;51427;-27.442;153.014;2023-05-21T13:32:51;102082.63;;;13.34
64916;BMP280;51427;-27.442;153.014;2023-05-21T13:35:19;102077.88;;;13.25
64916;BMP280;51427;-27.442;153.014;2023-05-21T13:37:50;102090.50;;;12.98
64916;BMP280;51427;-27.442;153.014;2023-05-21T13:40:17;102097.72;;;12.52
64916;BMP280;51427;-27.442;153.014;2023-05-21T13:42:46;102107.06;;;12.19
64916;BMP280;51427;-27.442;153.014;2023-05-21T13:45:17;102109.03;;;12.08
64916;BMP280;51427;-27.442;153.014;2023-05-21T13:47:46;102097.97;;;12.43
64916;BMP280;51427;-27.442;153.014;2023-05-21T13:50:15;102094.38;;;12.52
64916;BMP280;51427;-27.442;153.014;2023-05-21T13:52:43;102099.31;;;12.55
64916;BMP280;51427;-27.442;153.014;2023-05-21T13:55:11;102107.91;;;12.75
64916;BMP280;51427;-27.442;153.014;2023-05-21T13:57:41;102104.84;;;12.65
64916;BMP280;51427;-27.442;153.014;2023-05-21T14:00:10;102108.91;;;12.41